createdAt,value
2022-10-21T00:00:51.141Z,10.88
2022-10-21T00:03:19.735Z,11.70
2022-10-21T00:05:47.707Z,10.82
2022-10-21T00:08:16.251Z,11.00
2022-10-21T00:10:43.740Z,11.75
2022-10-21T00:13:12.228Z,10.70
2022-10-21T00:15:39.718Z,11.40
2022-10-21T00:18:07.235Z,11.50
2022-10-21T00:20:37.437Z,11.73
2022-10-21T00:23:07.608Z,12.18
2022-10-21T00:25:35.099Z,11.60
2022-10-21T00:28:02.560Z,11.50
2022-10-21T00:30:30.089Z,11.60
2022-10-21T00:33:02.071Z,11.93
2022-10-21T00:35:33.775Z,12.43
2022-10-21T00:38:01.269Z,11.73
2022-10-21T00:40:28.879Z,11.13
2022-10-21T00:42:56.440Z,11.00
2022-10-21T00:45:29.529Z,11.02
2022-10-21T00:48:07.707Z,11.32
2022-10-21T00:50:42.426Z,11.30
2022-10-21T00:53:14.429Z,11.55
2022-10-21T00:55:49.467Z,12.27
2022-10-21T00:58:19.068Z,11.60
2022-10-21T01:00:46.690Z,11.75
2022-10-21T01:03:14.687Z,11.45
2022-10-21T01:05:42.975Z,11.52
2022-10-21T01:08:10.699Z,10.80
2022-10-21T01:10:38.848Z,11.05
2022-10-21T01:13:40.708Z,11.70
2022-10-21T01:16:13.716Z,11.73
2022-10-21T01:19:05.597Z,11.97
2022-10-21T01:21:40.414Z,11.52
2022-10-21T01:24:26.338Z,12.85
2022-10-21T01:26:53.788Z,12.75
2022-10-21T01:29:46.589Z,12.05
2022-10-21T01:32:28.424Z,12.05
2022-10-21T01:35:19.523Z,12.60
2022-10-21T01:38:24.578Z,12.57
2022-10-21T01:41:20.987Z,12.52
2022-10-21T01:44:12.568Z,12.32
2022-10-21T01:46:42.914Z,12.02
2022-10-21T01:49:27.155Z,12.57
2022-10-21T01:54:36.418Z,12.70
2022-10-21T01:57:06.586Z,12.60
2022-10-21T01:59:35.484Z,12.50
2022-10-21T02:02:06.688Z,12.55
2022-10-21T02:04:36.878Z,11.80
2022-10-21T02:07:04.877Z,12.15
2022-10-21T02:12:06.814Z,12.75
2022-10-21T02:14:40.919Z,12.20
2022-10-21T02:19:37.741Z,13.05
2022-10-21T02:22:06.863Z,12.02
2022-10-21T02:24:44.397Z,12.82
2022-10-21T02:27:12.056Z,13.27
2022-10-21T02:29:44.378Z,13.27
2022-10-21T02:32:48.907Z,13.93
2022-10-21T02:35:43.837Z,13.68
2022-10-21T02:38:23.881Z,14.10
2022-10-21T02:41:02.198Z,13.25
2022-10-21T02:43:38.786Z,14.10
2022-10-21T02:46:09.343Z,14.50
2022-10-21T02:48:40.228Z,14.27
2022-10-21T02:51:08.367Z,15.27
2022-10-21T02:53:36.386Z,14.40
2022-10-21T02:56:04.778Z,13.25
2022-10-21T02:58:32.566Z,13.82
2022-10-21T03:01:00.434Z,14.30
2022-10-21T03:03:30.023Z,14.70
2022-10-21T03:05:57.943Z,14.68
2022-10-21T03:08:25.436Z,14.77
2022-10-21T03:10:53.578Z,14.65
2022-10-21T03:13:22.511Z,14.00
2022-10-21T03:15:50.485Z,15.10
2022-10-21T03:18:18.818Z,14.05
2022-10-21T03:20:50.435Z,15.05
2022-10-21T03:23:19.135Z,15.15
2022-10-21T03:25:47.436Z,15.18
2022-10-21T03:28:16.111Z,15.10
2022-10-21T03:30:43.666Z,15.50
2022-10-21T03:33:11.195Z,16.35
2022-10-21T03:35:38.646Z,15.88
2022-10-21T03:38:06.143Z,15.02
2022-10-21T03:40:33.639Z,15.55
2022-10-21T03:43:01.117Z,15.98
2022-10-21T03:45:28.694Z,15.75
2022-10-21T03:47:56.546Z,16.60
2022-10-21T03:50:26.527Z,15.82
2022-10-21T03:52:54.932Z,15.60
2022-10-21T03:55:24.419Z,17.08
2022-10-21T03:57:52.818Z,17.25
2022-10-21T04:00:20.594Z,16.83
2022-10-21T04:02:48.205Z,16.95
2022-10-21T04:05:15.813Z,18.05
2022-10-21T04:07:43.675Z,18.50
2022-10-21T04:10:11.714Z,18.30
2022-10-21T04:12:39.648Z,18.20
2022-10-21T04:15:08.227Z,19.05
2022-10-21T04:17:35.762Z,18.95
2022-10-21T04:20:03.627Z,17.67
2022-10-21T04:22:31.122Z,17.85
2022-10-21T04:25:00.956Z,18.13
2022-10-21T04:27:31.736Z,18.27
2022-10-21T04:29:59.311Z,19.00
2022-10-21T04:32:26.682Z,18.17
2022-10-21T04:34:54.222Z,19.25
2022-10-21T04:37:21.821Z,18.75
2022-10-21T04:39:49.325Z,19.45
2022-10-21T04:42:16.909Z,19.05
2022-10-21T04:44:44.326Z,19.95
2022-10-21T04:47:11.835Z,19.70
2022-10-21T04:49:39.308Z,20.90
2022-10-21T04:52:06.785Z,21.02
2022-10-21T04:54:34.302Z,18.63
2022-10-21T04:57:01.746Z,17.98
2022-10-21T04:59:29.284Z,18.35
2022-10-21T05:01:56.780Z,16.60
2022-10-21T05:04:24.334Z,17.15
2022-10-21T05:06:51.950Z,17.58
2022-10-21T05:09:19.463Z,17.38
2022-10-21T05:11:46.985Z,16.75
2022-10-21T05:14:16.581Z,18.10
2022-10-21T05:16:45.165Z,16.75
2022-10-21T05:19:12.769Z,17.23
2022-10-21T05:21:40.269Z,16.80
2022-10-21T05:24:07.771Z,18.50
2022-10-21T05:26:35.340Z,18.08
2022-10-21T05:29:02.864Z,18.15
2022-10-21T05:31:30.865Z,17.60
2022-10-21T05:33:58.424Z,16.55
2022-10-21T05:36:26.044Z,17.05
2022-10-21T05:38:54.183Z,17.73
2022-10-21T05:41:21.655Z,17.25
2022-10-21T05:43:49.105Z,17.10
2022-10-21T05:46:16.554Z,16.90
2022-10-21T05:48:44.160Z,14.77
2022-10-21T05:51:11.800Z,17.92
2022-10-21T05:53:39.993Z,16.83
2022-10-21T05:56:08.492Z,15.93
2022-10-21T05:58:35.934Z,16.65
2022-10-21T06:01:03.870Z,18.55
2022-10-21T06:03:33.330Z,16.60
2022-10-21T06:06:03.633Z,16.13
2022-10-21T06:08:33.040Z,17.83
2022-10-21T06:11:01.980Z,16.73
2022-10-21T06:13:29.554Z,16.05
2022-10-21T06:15:57.739Z,16.08
2022-10-21T06:18:25.605Z,15.93
2022-10-21T06:20:53.099Z,16.73
2022-10-21T06:23:21.144Z,16.25
2022-10-21T06:26:04.304Z,15.80
2022-10-21T06:28:34.019Z,16.30
2022-10-21T06:31:01.684Z,16.02
2022-10-21T06:33:29.264Z,17.35
2022-10-21T06:35:56.752Z,17.15
2022-10-21T06:38:26.189Z,17.27
2022-10-21T06:41:01.372Z,16.02
2022-10-21T06:43:29.473Z,16.45
2022-10-21T06:46:09.209Z,15.75
2022-10-21T06:48:36.684Z,15.85
2022-10-21T06:51:09.937Z,15.45
2022-10-21T06:53:39.260Z,15.15
2022-10-21T06:56:10.122Z,14.73
2022-10-21T06:58:39.422Z,14.43
2022-10-21T07:01:21.680Z,14.35
2022-10-21T07:04:00.013Z,15.25
2022-10-21T07:06:27.695Z,14.98
2022-10-21T07:08:59.428Z,14.52
2022-10-21T07:11:28.423Z,14.07
2022-10-21T07:13:56.024Z,13.57
2022-10-21T07:16:29.951Z,13.52
2022-10-21T07:21:27.590Z,12.48
2022-10-21T07:23:57.944Z,13.60
2022-10-21T07:26:29.444Z,14.70
2022-10-21T07:28:59.154Z,13.13
2022-10-21T07:31:28.091Z,13.60
2022-10-21T07:33:56.257Z,13.35
2022-10-21T07:36:27.613Z,13.02
2022-10-21T07:38:58.602Z,13.65
2022-10-21T07:41:29.889Z,13.93
2022-10-21T07:43:58.218Z,13.25
2022-10-21T07:46:25.741Z,13.48
2022-10-21T07:48:53.893Z,13.68
2022-10-21T07:51:28.514Z,12.77
2022-10-21T07:54:00.050Z,12.20
2022-10-21T07:56:49.048Z,12.07
2022-10-21T07:59:18.003Z,11.77
2022-10-21T08:04:22.683Z,11.88
2022-10-21T08:06:50.181Z,11.90
2022-10-21T08:09:17.977Z,12.48
2022-10-21T08:11:46.041Z,12.45
2022-10-21T08:14:14.330Z,12.18
2022-10-21T08:16:42.543Z,12.45
2022-10-21T08:19:18.178Z,12.00
2022-10-21T08:21:45.690Z,13.05
2022-10-21T08:24:13.122Z,12.93
2022-10-21T08:26:40.651Z,14.18
2022-10-21T08:29:08.058Z,13.80
2022-10-21T08:31:35.597Z,14.18
2022-10-21T08:34:03.172Z,14.70
2022-10-21T08:36:30.717Z,13.68
2022-10-21T08:38:58.838Z,12.65
2022-10-21T08:41:29.071Z,13.98
2022-10-21T08:44:02.252Z,13.27
2022-10-21T08:47:27.051Z,12.73
2022-10-21T08:50:12.047Z,12.75
2022-10-21T08:52:51.171Z,13.02
2022-10-21T08:55:26.231Z,13.43
2022-10-21T08:57:54.860Z,13.60
2022-10-21T09:00:36.170Z,12.80
2022-10-21T09:03:40.280Z,13.90
2022-10-21T09:06:23.962Z,12.38
2022-10-21T09:09:36.649Z,13.73
2022-10-21T09:12:33.113Z,12.80
2022-10-21T09:15:37.751Z,13.60
2022-10-21T09:18:26.787Z,12.73
2022-10-21T09:21:05.948Z,13.43
2022-10-21T09:24:07.052Z,12.32
2022-10-21T09:26:43.023Z,13.02
2022-10-21T09:29:32.233Z,12.73
2022-10-21T09:32:05.841Z,13.02
2022-10-21T09:35:13.929Z,13.23
2022-10-21T09:37:41.880Z,13.15
2022-10-21T09:40:30.981Z,12.70
2022-10-21T09:43:00.812Z,12.18
2022-10-21T09:45:45.841Z,12.73
2022-10-21T09:48:19.960Z,11.70
2022-10-21T09:50:51.860Z,12.70
2022-10-21T09:53:26.459Z,12.75
2022-10-21T09:56:04.399Z,12.68
2022-10-21T09:58:48.687Z,12.23
2022-10-21T10:03:52.956Z,13.55
2022-10-21T10:06:42.370Z,14.23
2022-10-21T10:09:16.476Z,13.93
2022-10-21T10:11:51.850Z,13.88
2022-10-21T10:14:32.856Z,14.80
2022-10-21T10:17:33.970Z,15.05
2022-10-21T10:20:21.816Z,14.90
2022-10-21T10:22:58.424Z,14.98
2022-10-21T10:25:31.921Z,15.65
2022-10-21T10:28:02.041Z,15.88
2022-10-21T10:30:41.149Z,17.08
2022-10-21T10:33:13.888Z,17.25
2022-10-21T10:35:49.758Z,17.83
2022-10-21T10:38:26.769Z,19.27
2022-10-21T10:40:56.450Z,17.98
2022-10-21T10:43:35.400Z,21.63
2022-10-21T10:46:05.659Z,21.33
2022-10-21T10:48:46.600Z,20.70
2022-10-21T10:51:32.930Z,20.75
2022-10-21T10:54:15.340Z,21.13
2022-10-21T10:57:15.326Z,20.88
2022-10-21T10:59:52.336Z,21.70
2022-10-21T11:02:37.860Z,20.83
2022-10-21T11:05:23.681Z,21.98
2022-10-21T11:07:54.169Z,22.08
2022-10-21T11:10:40.148Z,22.63
2022-10-21T11:13:14.878Z,22.25
2022-10-21T11:16:01.649Z,22.63
2022-10-21T11:18:37.471Z,22.58
2022-10-21T11:21:29.477Z,24.13
2022-10-21T11:24:12.019Z,23.77
2022-10-21T11:27:21.346Z,23.77
2022-10-21T11:30:10.608Z,22.98
2022-10-21T11:33:17.798Z,23.45
2022-10-21T11:35:57.744Z,22.38
2022-10-21T11:42:38.703Z,21.58
2022-10-21T11:45:21.865Z,22.38
2022-10-21T11:48:06.091Z,21.00
2022-10-21T11:53:12.906Z,21.10
2022-10-21T11:56:07.670Z,21.05
2022-10-21T11:58:59.786Z,20.83
2022-10-21T12:01:56.152Z,21.15
2022-10-21T12:05:07.506Z,22.05
2022-10-21T12:07:43.770Z,22.20
2022-10-21T12:10:31.029Z,21.58
2022-10-21T12:13:28.140Z,23.50
2022-10-21T12:15:57.895Z,22.02
2022-10-21T12:18:29.090Z,21.80
2022-10-21T12:20:58.668Z,21.42
2022-10-21T12:23:29.496Z,22.30
2022-10-21T12:26:24.670Z,22.92
2022-10-21T12:29:14.491Z,23.70
2022-10-21T12:31:51.809Z,22.55
2022-10-21T12:34:19.829Z,23.00
2022-10-21T12:36:50.748Z,21.60
2022-10-21T12:39:49.495Z,22.35
2022-10-21T12:42:23.289Z,23.20
2022-10-21T12:44:53.118Z,23.92
2022-10-21T12:47:25.631Z,24.05
2022-10-21T12:50:07.555Z,23.65
2022-10-21T12:52:38.548Z,23.38
2022-10-21T12:55:16.939Z,23.13
2022-10-21T12:57:44.612Z,23.70
2022-10-21T13:00:29.942Z,25.55
2022-10-21T13:03:10.819Z,23.92
2022-10-21T13:05:38.205Z,23.05
2022-10-21T13:08:21.178Z,23.85
2022-10-21T13:11:06.436Z,23.02
2022-10-21T13:13:41.116Z,23.35
2022-10-21T13:16:20.888Z,20.85
2022-10-21T13:19:02.847Z,20.25
2022-10-21T13:21:35.478Z,18.70
2022-10-21T13:24:14.388Z,19.40
2022-10-21T13:26:51.219Z,18.70
2022-10-21T13:29:30.209Z,17.55
2022-10-21T13:32:18.689Z,16.98
2022-10-21T13:34:49.011Z,16.00
2022-10-21T13:37:24.226Z,16.40
2022-10-21T13:39:53.494Z,16.65
2022-10-21T13:42:24.799Z,16.00
2022-10-21T13:44:57.877Z,16.90
2022-10-21T13:47:31.918Z,16.20
2022-10-21T13:50:20.362Z,16.30
2022-10-21T13:52:47.925Z,14.73
2022-10-21T13:55:21.839Z,16.38
2022-10-21T13:57:51.423Z,16.10
2022-10-21T14:00:32.466Z,14.38
2022-10-21T14:03:05.949Z,13.90
2022-10-21T14:05:35.566Z,14.60
2022-10-21T14:08:05.606Z,14.50
2022-10-21T14:10:33.135Z,13.23
2022-10-21T14:13:00.825Z,12.57
2022-10-21T14:15:37.897Z,13.02
2022-10-21T14:18:06.184Z,12.85
2022-10-21T14:20:36.829Z,12.43
2022-10-21T14:23:06.941Z,13.05
2022-10-21T14:25:34.967Z,14.25
2022-10-21T14:28:04.422Z,13.93
2022-10-21T14:30:34.106Z,13.55
2022-10-21T14:33:04.193Z,14.05
2022-10-21T14:35:32.206Z,14.52
2022-10-21T14:38:02.811Z,13.95
2022-10-21T14:40:41.734Z,13.98
2022-10-21T14:43:12.208Z,14.05
2022-10-21T14:45:47.020Z,13.57
2022-10-21T14:48:14.357Z,13.32
2022-10-21T14:50:42.956Z,14.68
2022-10-21T14:53:16.959Z,14.45
2022-10-21T14:55:46.207Z,14.20
2022-10-21T14:58:23.041Z,13.90
2022-10-21T15:01:17.267Z,12.70
2022-10-21T15:03:50.865Z,12.55
2022-10-21T15:06:35.942Z,11.52
2022-10-21T15:09:12.501Z,11.15
2022-10-21T15:11:45.089Z,10.57
2022-10-21T15:14:12.477Z,10.88
2022-10-21T15:16:54.746Z,10.73
2022-10-21T15:19:26.486Z,10.48
2022-10-21T15:22:03.495Z,10.18
2022-10-21T15:24:30.926Z,10.90
2022-10-21T15:27:00.348Z,9.50
2022-10-21T15:29:35.017Z,10.50
2022-10-21T15:32:03.843Z,10.30
2022-10-21T15:34:31.570Z,10.07
2022-10-21T15:36:59.086Z,10.18
2022-10-21T15:39:26.667Z,11.02
2022-10-21T15:41:56.381Z,11.90
2022-10-21T15:44:27.888Z,13.25
2022-10-21T15:46:59.462Z,12.65
2022-10-21T15:49:32.222Z,14.98
2022-10-21T15:51:59.717Z,14.95
2022-10-21T15:54:27.181Z,15.63
2022-10-21T15:56:55.747Z,16.52
2022-10-21T15:59:29.073Z,16.85
2022-10-21T16:01:57.168Z,17.88
2022-10-21T16:04:25.485Z,19.17
2022-10-21T16:06:54.508Z,19.02
2022-10-21T16:09:25.523Z,18.92
2022-10-21T16:12:00.948Z,20.73
2022-10-21T16:14:30.767Z,19.67
2022-10-21T16:16:59.733Z,21.23
2022-10-21T16:19:28.048Z,20.88
2022-10-21T16:21:56.282Z,21.08
2022-10-21T16:24:23.644Z,21.90
2022-10-21T16:26:51.062Z,20.23
2022-10-21T16:29:21.525Z,20.85
2022-10-21T16:31:49.679Z,17.77
2022-10-21T16:34:17.274Z,17.27
2022-10-21T16:36:45.134Z,16.33
2022-10-21T16:39:18.830Z,15.98
2022-10-21T16:41:46.534Z,15.25
2022-10-21T16:44:14.576Z,13.93
2022-10-21T16:46:47.652Z,15.23
2022-10-21T16:49:18.495Z,14.67
2022-10-21T16:51:49.117Z,14.57
2022-10-21T16:54:16.744Z,14.70
2022-10-21T16:56:44.107Z,14.20
2022-10-21T16:59:11.901Z,14.07
2022-10-21T17:01:39.696Z,14.35
2022-10-21T17:04:07.378Z,13.32
2022-10-21T17:06:34.871Z,14.00
2022-10-21T17:09:02.360Z,14.35
2022-10-21T17:11:37.756Z,13.82
2022-10-21T17:14:08.427Z,13.95
2022-10-21T17:16:35.871Z,14.25
2022-10-21T17:19:03.525Z,16.20
2022-10-21T17:21:33.011Z,15.75
2022-10-21T17:24:02.685Z,16.63
2022-10-21T17:26:30.492Z,18.13
2022-10-21T17:28:58.343Z,18.67
2022-10-21T17:31:28.475Z,18.17
2022-10-21T17:33:58.841Z,18.95
2022-10-21T17:36:26.264Z,20.02
2022-10-21T17:38:53.773Z,19.27
2022-10-21T17:41:21.287Z,20.98
2022-10-21T17:43:48.801Z,19.48
2022-10-21T17:46:18.875Z,20.92
2022-10-21T17:48:50.895Z,20.55
2022-10-21T17:51:18.427Z,19.00
2022-10-21T17:53:51.725Z,21.08
2022-10-21T17:56:20.006Z,19.45
2022-10-21T17:58:52.485Z,20.60
2022-10-21T18:01:20.707Z,20.98
2022-10-21T18:03:48.474Z,20.05
2022-10-21T18:06:16.495Z,20.20
2022-10-21T18:08:44.218Z,21.00
2022-10-21T18:11:15.423Z,19.25
2022-10-21T18:13:43.497Z,20.38
2022-10-21T18:16:14.123Z,20.50
2022-10-21T18:21:20.203Z,19.85
2022-10-21T18:23:50.731Z,19.88
2022-10-21T18:26:24.835Z,19.63
2022-10-21T18:28:57.969Z,17.92
2022-10-21T18:31:29.844Z,18.70
2022-10-21T18:33:59.732Z,18.50
2022-10-21T18:36:27.894Z,16.95
2022-10-21T18:38:57.034Z,16.75
2022-10-21T18:41:25.141Z,17.45
2022-10-21T18:44:01.717Z,16.35
2022-10-21T18:46:30.081Z,16.38
2022-10-21T18:48:58.598Z,16.75
2022-10-21T18:51:26.491Z,17.20
2022-10-21T18:53:54.037Z,15.50
2022-10-21T18:56:24.488Z,15.15
2022-10-21T18:58:52.679Z,15.77
2022-10-21T19:01:21.640Z,14.55
2022-10-21T19:03:50.936Z,14.52
2022-10-21T19:06:41.536Z,14.20
2022-10-21T19:09:13.149Z,14.48
2022-10-21T19:11:44.158Z,13.50
2022-10-21T19:14:14.194Z,13.57
2022-10-21T19:16:44.219Z,13.55
2022-10-21T19:19:12.354Z,13.18
2022-10-21T19:21:39.774Z,13.52
2022-10-21T19:24:07.557Z,13.70
2022-10-21T19:26:37.218Z,13.52
2022-10-21T19:29:08.714Z,12.82
2022-10-21T19:31:38.541Z,13.13
2022-10-21T19:34:07.488Z,12.93
2022-10-21T19:36:35.203Z,13.00
2022-10-21T19:39:02.777Z,13.07
2022-10-21T19:41:30.382Z,13.10
2022-10-21T19:44:00.540Z,12.65
2022-10-21T19:46:30.877Z,12.85
2022-10-21T19:49:05.669Z,11.27
2022-10-21T19:51:34.010Z,11.30
2022-10-21T19:54:05.004Z,10.23
2022-10-21T19:56:34.733Z,10.13
2022-10-21T19:59:03.376Z,9.65
2022-10-21T20:01:32.794Z,9.48
2022-10-21T20:04:02.129Z,9.98
2022-10-21T20:06:35.494Z,9.32
2022-10-21T20:09:10.286Z,9.25
2022-10-21T20:11:39.900Z,9.65
2022-10-21T20:14:07.477Z,9.52
2022-10-21T20:16:37.924Z,9.40
2022-10-21T20:19:07.010Z,9.32
2022-10-21T20:21:35.928Z,8.73
2022-10-21T20:24:03.807Z,8.75
2022-10-21T20:26:31.316Z,9.00
2022-10-21T20:29:00.764Z,9.02
2022-10-21T20:31:28.819Z,8.52
2022-10-21T20:33:56.639Z,8.82
2022-10-21T20:36:27.459Z,8.35
2022-10-21T20:38:57.676Z,7.57
2022-10-21T20:41:33.738Z,7.78
2022-10-21T20:44:02.680Z,7.90
2022-10-21T20:46:35.144Z,7.28
2022-10-21T20:49:05.538Z,7.68
2022-10-21T20:51:34.413Z,7.22
2022-10-21T20:54:07.487Z,6.60
2022-10-21T20:56:37.349Z,7.30
2022-10-21T20:59:06.797Z,7.47
2022-10-21T21:01:37.542Z,6.65
2022-10-21T21:06:38.654Z,6.25
2022-10-21T21:11:54.349Z,6.53
2022-10-21T21:14:21.938Z,6.53
2022-10-21T21:16:49.364Z,5.97
2022-10-21T21:19:16.918Z,6.00
2022-10-21T21:21:44.314Z,5.78
2022-10-21T21:24:11.867Z,5.60
2022-10-21T21:26:40.156Z,5.85
2022-10-21T21:29:13.304Z,5.72
2022-10-21T21:31:41.754Z,6.35
2022-10-21T21:34:10.115Z,6.35
2022-10-21T21:36:37.960Z,5.38
2022-10-21T21:39:07.366Z,5.32
2022-10-21T21:41:35.567Z,5.68
2022-10-21T21:44:05.008Z,5.50
2022-10-21T21:46:32.493Z,4.85
2022-10-21T21:49:05.031Z,5.05
2022-10-21T21:51:34.640Z,4.90
2022-10-21T21:54:02.390Z,4.47
2022-10-21T21:56:29.966Z,4.85
2022-10-21T21:58:58.251Z,4.40
2022-10-21T22:01:28.172Z,4.15
2022-10-21T22:03:56.975Z,3.67
2022-10-21T22:06:28.456Z,4.18
2022-10-21T22:08:56.782Z,3.85
2022-10-21T22:11:26.474Z,4.00
2022-10-21T22:13:53.919Z,5.10
2022-10-21T22:16:24.346Z,5.10
2022-10-21T22:18:52.135Z,5.60
2022-10-21T22:21:20.008Z,4.90
2022-10-21T22:23:48.918Z,7.15
2022-10-21T22:26:18.837Z,8.48
2022-10-21T22:28:47.022Z,8.60
2022-10-21T22:31:16.981Z,7.18
2022-10-21T22:33:45.376Z,7.78
2022-10-21T22:36:12.793Z,8.82
2022-10-21T22:38:40.368Z,8.15
2022-10-21T22:41:12.214Z,8.35
2022-10-21T22:43:41.016Z,8.25
2022-10-21T22:48:55.976Z,7.85
2022-10-21T22:51:23.549Z,8.50
2022-10-21T22:53:55.299Z,7.88
2022-10-21T22:56:25.890Z,7.70
2022-10-21T22:58:53.809Z,7.20
2022-10-21T23:01:21.336Z,8.30
2022-10-21T23:03:48.868Z,7.75
2022-10-21T23:06:16.275Z,7.15
2022-10-21T23:08:43.857Z,7.25
2022-10-21T23:11:11.358Z,7.07
2022-10-21T23:13:47.363Z,7.85
2022-10-21T23:16:24.004Z,7.90
2022-10-21T23:18:51.449Z,7.55
2022-10-21T23:21:18.904Z,7.22
2022-10-21T23:23:46.387Z,6.75
2022-10-21T23:26:13.996Z,6.90
2022-10-21T23:28:41.412Z,7.82
2022-10-21T23:31:08.864Z,8.75
2022-10-21T23:33:36.404Z,7.28
2022-10-21T23:36:04.048Z,7.43
2022-10-21T23:38:31.550Z,7.57
2022-10-21T23:40:58.973Z,8.55
2022-10-21T23:43:26.474Z,8.18
2022-10-21T23:45:53.974Z,7.55
2022-10-21T23:48:21.624Z,7.45
2022-10-21T23:50:49.314Z,7.35
2022-10-21T23:53:16.797Z,8.02
2022-10-21T23:55:44.285Z,6.38
2022-10-21T23:58:11.755Z,6.03
